createdAt,value
2022-10-23T00:02:02.479Z,9.22
2022-10-23T00:05:06.188Z,9.24
2022-10-23T00:08:10.705Z,9.02
2022-10-23T00:11:17.077Z,9.07
2022-10-23T00:14:23.478Z,9.17
2022-10-23T00:17:26.585Z,9.39
2022-10-23T00:20:29.992Z,9.37
2022-10-23T00:23:34.530Z,9.26
2022-10-23T00:26:40.450Z,9.44
2022-10-23T00:29:45.207Z,9.40
2022-10-23T00:32:48.480Z,9.39
2022-10-23T00:35:51.580Z,9.35
2022-10-23T00:38:57.030Z,9.21
2022-10-23T00:42:00.226Z,9.35
2022-10-23T00:45:21.355Z,9.32
2022-10-23T00:48:26.507Z,9.11
2022-10-23T00:51:37.053Z,9.22
2022-10-23T00:54:43.761Z,8.75
2022-10-23T00:57:49.727Z,9.09
2022-10-23T01:00:54.815Z,8.71
2022-10-23T01:03:58.384Z,8.80
2022-10-23T01:07:08.200Z,8.91
2022-10-23T01:10:17.143Z,8.95
2022-10-23T01:13:27.799Z,9.07
2022-10-23T01:16:38.902Z,9.02
2022-10-23T01:19:55.508Z,8.89
2022-10-23T01:23:24.334Z,8.52
2022-10-23T01:26:56.274Z,8.53
2022-10-23T01:30:20.885Z,8.87
2022-10-23T01:33:30.251Z,8.87
2022-10-23T01:36:34.466Z,8.89
2022-10-23T01:39:41.696Z,8.68
2022-10-23T01:42:50.951Z,8.89
2022-10-23T01:46:03.665Z,8.64
2022-10-23T01:49:10.440Z,8.36
2022-10-23T01:52:18.568Z,8.45
2022-10-23T01:55:25.734Z,8.81
2022-10-23T01:58:32.425Z,8.41
2022-10-23T02:01:41.052Z,8.37
2022-10-23T02:04:50.631Z,8.33
2022-10-23T02:07:55.060Z,8.27
2022-10-23T02:11:05.599Z,8.51
2022-10-23T02:14:15.291Z,8.30
2022-10-23T02:17:30.889Z,8.61
2022-10-23T02:20:40.658Z,8.19
2022-10-23T02:23:53.793Z,8.15
2022-10-23T02:27:03.748Z,8.12
2022-10-23T02:30:08.920Z,8.11
2022-10-23T02:33:15.179Z,8.01
2022-10-23T02:36:20.015Z,7.93
2022-10-23T02:39:27.056Z,7.89
2022-10-23T02:42:35.189Z,7.96
2022-10-23T02:45:45.607Z,7.84
2022-10-23T02:48:58.725Z,7.57
2022-10-23T02:52:10.403Z,7.72
2022-10-23T02:55:24.136Z,7.98
2022-10-23T02:58:34.211Z,8.11
2022-10-23T03:01:47.455Z,7.69
2022-10-23T03:04:53.978Z,7.59
2022-10-23T03:07:57.707Z,8.24
2022-10-23T03:11:00.863Z,7.55
2022-10-23T03:14:05.137Z,7.85
2022-10-23T03:17:08.351Z,7.51
2022-10-23T03:20:13.397Z,8.08
2022-10-23T03:23:18.528Z,8.14
2022-10-23T03:26:21.786Z,8.09
2022-10-23T03:29:24.962Z,7.73
2022-10-23T03:34:24.622Z,8.25
2022-10-23T03:37:29.672Z,7.56
2022-10-23T03:40:33.188Z,7.55
2022-10-23T03:43:36.624Z,7.40
2022-10-23T03:46:40.693Z,7.36
2022-10-23T03:49:45.328Z,7.29
2022-10-23T03:52:48.444Z,7.13
2022-10-23T03:55:51.609Z,7.28
2022-10-23T03:58:54.987Z,7.31
2022-10-23T04:02:00.855Z,7.27
2022-10-23T04:05:06.139Z,7.83
2022-10-23T04:08:10.252Z,7.39
2022-10-23T04:11:14.082Z,7.38
2022-10-23T04:14:23.142Z,7.30
2022-10-23T04:20:36.459Z,7.21
2022-10-23T04:23:39.791Z,7.56
2022-10-23T04:26:48.858Z,7.17
2022-10-23T04:29:54.323Z,7.09
2022-10-23T04:33:00.012Z,7.51
2022-10-23T04:36:04.673Z,7.44
2022-10-23T04:39:09.456Z,6.98
2022-10-23T04:42:13.228Z,6.81
2022-10-23T04:45:16.703Z,6.83
2022-10-23T04:48:19.972Z,6.83
2022-10-23T04:51:44.460Z,6.77
2022-10-23T04:55:19.689Z,6.92
2022-10-23T04:58:41.417Z,7.25
2022-10-23T05:01:44.851Z,7.17
2022-10-23T05:04:50.013Z,7.12
2022-10-23T05:08:15.671Z,7.32
2022-10-23T05:11:40.268Z,7.34
2022-10-23T05:14:45.681Z,7.05
2022-10-23T05:17:52.607Z,7.25
2022-10-23T05:21:00.339Z,6.97
2022-10-23T05:24:05.304Z,7.21
2022-10-23T05:27:08.496Z,7.71
2022-10-23T05:30:15.075Z,7.54
2022-10-23T05:33:18.919Z,7.28
2022-10-23T05:36:25.850Z,7.75
2022-10-23T05:39:35.317Z,7.98
2022-10-23T05:42:42.938Z,7.86
2022-10-23T05:46:08.542Z,7.45
2022-10-23T05:49:37.863Z,7.51
2022-10-23T05:53:07.193Z,7.56
2022-10-23T05:56:26.888Z,7.26
2022-10-23T05:59:37.312Z,7.39
2022-10-23T06:03:00.522Z,7.35
2022-10-23T06:06:13.723Z,7.86
2022-10-23T06:09:22.784Z,7.39
2022-10-23T06:12:32.418Z,7.49
2022-10-23T06:15:35.887Z,7.64
2022-10-23T06:18:50.281Z,7.50
2022-10-23T06:21:54.769Z,7.50
2022-10-23T06:25:07.649Z,7.87
2022-10-23T06:28:14.862Z,7.50
2022-10-23T06:31:23.613Z,7.71
2022-10-23T06:34:27.710Z,7.85
2022-10-23T06:37:30.948Z,8.54
2022-10-23T06:40:57.794Z,8.82
2022-10-23T06:44:10.229Z,8.79
2022-10-23T06:47:25.300Z,9.04
2022-10-23T06:50:48.391Z,9.06
2022-10-23T06:53:56.366Z,9.19
2022-10-23T06:57:25.385Z,9.25
2022-10-23T07:00:30.110Z,9.30
2022-10-23T07:03:34.814Z,9.30
2022-10-23T07:06:41.222Z,9.35
2022-10-23T07:09:45.005Z,9.57
2022-10-23T07:12:51.183Z,9.69
2022-10-23T07:16:20.957Z,9.76
2022-10-23T07:19:24.620Z,9.87
2022-10-23T07:22:32.759Z,10.16
2022-10-23T07:25:48.709Z,10.13
2022-10-23T07:28:57.637Z,10.35
2022-10-23T07:32:04.451Z,10.43
2022-10-23T07:35:08.977Z,10.69
2022-10-23T07:38:15.023Z,10.60
2022-10-23T07:41:22.342Z,10.55
2022-10-23T07:44:27.741Z,11.01
2022-10-23T07:47:33.500Z,10.83
2022-10-23T07:50:38.994Z,11.06
2022-10-23T07:53:42.759Z,10.90
2022-10-23T07:56:54.261Z,11.03
2022-10-23T08:00:01.393Z,11.32
2022-10-23T08:03:08.025Z,11.21
2022-10-23T08:06:11.437Z,11.25
2022-10-23T08:09:14.948Z,11.66
2022-10-23T08:12:19.282Z,11.74
2022-10-23T08:15:22.589Z,12.06
2022-10-23T08:18:35.876Z,11.96
2022-10-23T08:21:39.036Z,11.85
2022-10-23T08:24:42.379Z,11.90
2022-10-23T08:27:46.352Z,11.96
2022-10-23T08:30:50.718Z,12.17
2022-10-23T08:33:55.982Z,12.15
2022-10-23T08:36:59.181Z,12.23
2022-10-23T08:40:02.347Z,12.29
2022-10-23T08:43:31.243Z,12.31
2022-10-23T08:46:48.844Z,12.45
2022-10-23T08:50:37.849Z,12.52
2022-10-23T08:53:45.513Z,12.50
2022-10-23T08:56:52.843Z,12.80
2022-10-23T09:00:00.042Z,12.94
2022-10-23T09:03:05.903Z,13.06
2022-10-23T09:06:23.311Z,13.15
2022-10-23T09:09:43.570Z,13.31
2022-10-23T09:12:47.108Z,13.67
2022-10-23T09:15:56.714Z,13.80
2022-10-23T09:19:00.649Z,14.02
2022-10-23T09:22:06.891Z,13.93
2022-10-23T09:25:11.844Z,14.35
2022-10-23T09:28:20.798Z,14.40
2022-10-23T09:34:26.598Z,14.21
2022-10-23T09:37:31.924Z,12.84
2022-10-23T09:40:41.571Z,13.63
2022-10-23T09:43:44.719Z,14.23
2022-10-23T09:49:57.166Z,14.45
2022-10-23T09:53:00.794Z,14.77
2022-10-23T09:56:07.864Z,14.58
2022-10-23T09:59:23.391Z,14.86
2022-10-23T10:02:30.093Z,14.90
2022-10-23T10:05:59.737Z,15.11
2022-10-23T10:09:08.682Z,15.28
2022-10-23T10:12:22.619Z,15.22
2022-10-23T10:15:32.345Z,15.01
2022-10-23T10:18:43.348Z,15.10
2022-10-23T10:21:53.785Z,15.04
2022-10-23T10:25:02.911Z,15.02
2022-10-23T10:28:22.353Z,15.21
2022-10-23T10:31:36.040Z,15.34
2022-10-23T10:34:44.309Z,15.37
2022-10-23T10:38:05.278Z,15.32
2022-10-23T10:41:39.306Z,15.32
2022-10-23T10:44:55.893Z,15.54
2022-10-23T10:48:14.742Z,15.65
2022-10-23T10:51:48.072Z,15.63
2022-10-23T10:55:01.980Z,15.98
2022-10-23T10:58:11.796Z,16.00
2022-10-23T11:01:26.355Z,15.95
2022-10-23T11:04:37.927Z,16.44
2022-10-23T11:07:48.663Z,16.42
2022-10-23T11:10:58.685Z,16.45
2022-10-23T11:14:02.986Z,16.38
2022-10-23T11:17:14.013Z,16.76
2022-10-23T11:20:29.658Z,16.76
2022-10-23T11:23:57.642Z,16.58
2022-10-23T11:27:20.353Z,16.49
2022-10-23T11:30:34.447Z,16.72
2022-10-23T11:34:00.372Z,16.98
2022-10-23T11:37:04.877Z,16.87
2022-10-23T11:40:22.753Z,16.85
2022-10-23T11:43:33.463Z,16.53
2022-10-23T11:46:38.374Z,16.55
2022-10-23T11:49:41.747Z,16.42
2022-10-23T11:53:14.710Z,16.60
2022-10-23T11:56:31.097Z,16.75
2022-10-23T11:59:41.834Z,16.63
2022-10-23T12:02:45.639Z,16.69
2022-10-23T12:05:58.614Z,16.70
2022-10-23T12:09:06.029Z,16.54
2022-10-23T12:12:19.040Z,16.77
2022-10-23T12:15:24.876Z,16.87
2022-10-23T12:18:28.487Z,16.90
2022-10-23T12:21:36.229Z,16.89
2022-10-23T12:24:43.472Z,17.09
2022-10-23T12:27:53.842Z,17.00
2022-10-23T12:31:08.568Z,16.96
2022-10-23T12:34:25.970Z,17.07
2022-10-23T12:37:59.101Z,17.04
2022-10-23T12:41:07.152Z,16.99
2022-10-23T12:44:13.503Z,16.93
2022-10-23T12:47:19.764Z,16.80
2022-10-23T12:50:25.230Z,17.01
2022-10-23T12:53:28.331Z,17.03
2022-10-23T12:56:38.878Z,16.80
2022-10-23T12:59:43.874Z,16.86
2022-10-23T13:02:58.756Z,16.93
2022-10-23T13:06:04.408Z,16.81
2022-10-23T13:09:21.109Z,16.99
2022-10-23T13:12:39.670Z,16.77
2022-10-23T13:15:44.706Z,16.86
2022-10-23T13:18:49.674Z,16.54
2022-10-23T13:21:52.902Z,16.49
2022-10-23T13:24:56.303Z,16.50
2022-10-23T13:28:22.841Z,16.47
2022-10-23T13:31:29.391Z,16.39
2022-10-23T13:34:33.982Z,16.50
2022-10-23T13:37:37.678Z,16.41
2022-10-23T13:40:40.968Z,16.47
2022-10-23T13:43:45.278Z,16.43
2022-10-23T13:46:49.295Z,16.58
2022-10-23T13:49:54.065Z,16.38
2022-10-23T13:52:58.370Z,16.37
2022-10-23T13:56:01.517Z,16.24
2022-10-23T13:59:05.019Z,16.36
2022-10-23T14:02:20.249Z,16.42
2022-10-23T14:05:25.182Z,16.08
2022-10-23T14:08:28.445Z,16.38
2022-10-23T14:11:32.350Z,16.33
2022-10-23T14:14:35.648Z,16.35
2022-10-23T14:17:39.142Z,16.16
2022-10-23T14:20:43.673Z,16.05
2022-10-23T14:23:47.097Z,16.07
2022-10-23T14:26:50.317Z,16.26
2022-10-23T14:29:53.474Z,16.41
2022-10-23T14:32:56.598Z,16.32
2022-10-23T14:36:01.139Z,16.37
2022-10-23T14:39:04.804Z,16.34
2022-10-23T14:42:08.467Z,16.22
2022-10-23T14:45:12.182Z,16.21
2022-10-23T14:48:15.503Z,16.17
2022-10-23T14:51:22.809Z,16.19
2022-10-23T14:54:26.653Z,16.19
2022-10-23T14:57:29.885Z,16.13
2022-10-23T15:00:33.088Z,16.09
2022-10-23T15:03:36.252Z,16.03
2022-10-23T15:06:41.583Z,15.96
2022-10-23T15:09:44.785Z,15.93
2022-10-23T15:12:48.629Z,15.68
2022-10-23T15:15:51.742Z,15.58
2022-10-23T15:18:54.975Z,15.86
2022-10-23T15:21:59.570Z,15.76
2022-10-23T15:25:02.730Z,15.71
2022-10-23T15:28:06.082Z,15.56
2022-10-23T15:34:33.650Z,14.73
2022-10-23T15:37:41.388Z,15.44
2022-10-23T15:40:46.013Z,15.17
2022-10-23T15:46:53.701Z,14.81
2022-10-23T15:49:58.402Z,15.16
2022-10-23T15:53:01.936Z,15.09
2022-10-23T15:56:05.494Z,14.93
2022-10-23T15:59:08.734Z,15.09
2022-10-23T16:02:12.712Z,14.99
2022-10-23T16:05:17.560Z,15.09
2022-10-23T16:08:20.810Z,15.06
2022-10-23T16:11:26.203Z,15.00
2022-10-23T16:14:29.669Z,14.93
2022-10-23T16:17:33.078Z,14.81
2022-10-23T16:20:40.862Z,14.70
2022-10-23T16:23:44.282Z,14.66
2022-10-23T16:26:52.968Z,14.70
2022-10-23T16:29:56.564Z,14.39
2022-10-23T16:32:59.776Z,14.70
2022-10-23T16:36:09.749Z,14.66
2022-10-23T16:39:52.796Z,13.31
2022-10-23T16:43:18.925Z,14.64
2022-10-23T16:46:34.025Z,14.49
2022-10-23T16:49:37.338Z,14.36
2022-10-23T16:52:42.509Z,14.44
2022-10-23T16:55:46.214Z,14.45
2022-10-23T16:58:51.755Z,14.05
2022-10-23T17:01:55.081Z,14.36
2022-10-23T17:04:58.606Z,14.23
2022-10-23T17:08:03.237Z,14.35
2022-10-23T17:11:08.506Z,14.16
2022-10-23T17:14:15.105Z,14.30
2022-10-23T17:17:18.392Z,14.08
2022-10-23T17:20:21.697Z,14.23
2022-10-23T17:23:26.600Z,14.45
2022-10-23T17:26:30.563Z,14.03
2022-10-23T17:29:38.418Z,14.03
2022-10-23T17:32:42.396Z,13.97
2022-10-23T17:35:46.365Z,13.91
2022-10-23T17:38:51.492Z,14.07
2022-10-23T17:41:55.535Z,13.60
2022-10-23T17:44:58.995Z,13.62
2022-10-23T17:48:02.351Z,13.91
2022-10-23T17:51:08.813Z,13.72
2022-10-23T17:54:14.606Z,13.36
2022-10-23T17:57:20.603Z,13.80
2022-10-23T18:00:24.028Z,13.88
2022-10-23T18:03:27.386Z,13.75
2022-10-23T18:06:33.098Z,13.16
2022-10-23T18:09:37.796Z,13.55
2022-10-23T18:12:41.135Z,13.74
2022-10-23T18:15:44.564Z,13.53
2022-10-23T18:18:49.113Z,13.73
2022-10-23T18:21:52.505Z,13.48
2022-10-23T18:24:57.256Z,13.66
2022-10-23T18:28:02.496Z,13.71
2022-10-23T18:31:09.166Z,13.65
2022-10-23T18:34:17.475Z,13.72
2022-10-23T18:37:20.895Z,13.73
2022-10-23T18:40:28.584Z,13.73
2022-10-23T18:43:43.098Z,13.75
2022-10-23T18:46:48.927Z,13.80
2022-10-23T18:49:52.557Z,13.83
2022-10-23T18:52:57.264Z,13.73
2022-10-23T18:56:01.872Z,13.69
2022-10-23T18:59:07.825Z,12.94
2022-10-23T19:02:12.985Z,13.66
2022-10-23T19:05:16.357Z,13.54
2022-10-23T19:08:20.191Z,13.50
2022-10-23T19:11:32.252Z,13.43
2022-10-23T19:14:47.160Z,13.24
2022-10-23T19:17:57.637Z,13.35
2022-10-23T19:21:09.282Z,13.20
2022-10-23T19:24:37.473Z,13.12
2022-10-23T19:27:51.217Z,13.14
2022-10-23T19:31:01.548Z,13.20
2022-10-23T19:34:10.163Z,13.32
2022-10-23T19:37:15.941Z,13.15
2022-10-23T19:44:38.269Z,13.47
2022-10-23T19:47:42.844Z,13.57
2022-10-23T19:50:48.630Z,13.58
2022-10-23T19:56:57.188Z,13.57
2022-10-23T20:00:04.635Z,13.58
2022-10-23T20:03:13.628Z,13.60
2022-10-23T20:06:19.890Z,13.58
2022-10-23T20:09:23.996Z,13.58
2022-10-23T20:12:27.662Z,13.53
2022-10-23T20:15:37.449Z,13.37
2022-10-23T20:18:40.993Z,13.39
2022-10-23T20:21:48.289Z,13.31
2022-10-23T20:24:52.470Z,13.27
2022-10-23T20:27:56.005Z,13.24
2022-10-23T20:31:02.373Z,13.25
2022-10-23T20:34:06.187Z,13.22
2022-10-23T20:37:09.516Z,13.36
2022-10-23T20:40:12.791Z,13.38
2022-10-23T20:43:16.102Z,13.50
2022-10-23T20:46:21.000Z,13.30
2022-10-23T20:49:25.159Z,13.36
2022-10-23T20:52:30.186Z,13.33
2022-10-23T20:55:35.814Z,13.18
2022-10-23T20:58:39.150Z,13.19
2022-10-23T21:01:46.013Z,13.15
2022-10-23T21:04:50.516Z,13.10
2022-10-23T21:07:58.314Z,13.27
2022-10-23T21:11:02.326Z,13.43
2022-10-23T21:14:05.807Z,13.35
2022-10-23T21:17:14.184Z,13.44
2022-10-23T21:20:18.172Z,13.34
2022-10-23T21:23:21.826Z,12.90
2022-10-23T21:26:25.420Z,13.33
2022-10-23T21:29:28.844Z,13.21
2022-10-23T21:34:24.230Z,13.37
2022-10-23T21:37:27.341Z,13.25
2022-10-23T21:40:30.470Z,13.43
2022-10-23T21:43:33.669Z,13.31
2022-10-23T21:46:38.054Z,13.16
2022-10-23T21:49:42.726Z,13.31
2022-10-23T21:52:46.263Z,13.34
2022-10-23T21:55:49.904Z,13.41
2022-10-23T21:58:53.141Z,13.47
2022-10-23T22:01:56.353Z,13.49
2022-10-23T22:05:00.909Z,13.49
2022-10-23T22:08:04.698Z,13.73
2022-10-23T22:11:07.765Z,13.76
2022-10-23T22:14:11.537Z,13.73
2022-10-23T22:17:14.661Z,13.71
2022-10-23T22:20:19.312Z,13.66
2022-10-23T22:23:22.398Z,13.59
2022-10-23T22:26:28.080Z,13.69
2022-10-23T22:29:31.627Z,13.60
2022-10-23T22:32:36.368Z,13.66
2022-10-23T22:35:41.047Z,14.12
2022-10-23T22:38:44.993Z,14.45
2022-10-23T22:41:48.494Z,14.74
2022-10-23T22:44:51.574Z,15.03
2022-10-23T22:47:54.674Z,14.94
2022-10-23T22:50:59.193Z,14.94
2022-10-23T22:54:02.352Z,14.76
2022-10-23T22:57:05.682Z,14.78
2022-10-23T23:00:09.815Z,14.82
2022-10-23T23:03:13.107Z,14.69
2022-10-23T23:06:18.201Z,14.76
2022-10-23T23:09:21.331Z,14.75
2022-10-23T23:12:24.482Z,14.73
2022-10-23T23:15:27.921Z,14.67
2022-10-23T23:18:31.491Z,14.70
2022-10-23T23:21:35.922Z,14.66
2022-10-23T23:24:39.119Z,14.76
2022-10-23T23:27:42.224Z,14.71
2022-10-23T23:33:50.070Z,14.94
2022-10-23T23:36:54.691Z,15.03
2022-10-23T23:39:58.366Z,15.10
2022-10-23T23:43:02.067Z,15.03
2022-10-23T23:46:05.394Z,15.16
2022-10-23T23:49:09.017Z,14.96
2022-10-23T23:52:13.508Z,15.17
2022-10-23T23:55:16.657Z,15.03
2022-10-23T23:58:19.844Z,15.18
